sensor_id;sensor_type;location;lat;lon;timestamp;P1;durP1;ratioP1;P2;durP2;ratioP2
6832;SDS011;3454;42.654;23.378;2023-06-04T00:00:04;2.88;;;2.65;;
6832;SDS011;3454;42.654;23.378;2023-06-04T00:02:30;3.17;;;2.85;;
6832;SDS011;3454;42.654;23.378;2023-06-04T00:04:56;4.53;;;2.70;;
6832;SDS011;3454;42.654;23.378;2023-06-04T00:07:21;3.70;;;2.95;;
6832;SDS011;3454;42.654;23.378;2023-06-04T00:09:47;3.47;;;2.95;;
6832;SDS011;3454;42.654;23.378;2023-06-04T00:12:12;3.13;;;2.83;;
6832;SDS011;3454;42.654;23.378;2023-06-04T00:14:38;4.22;;;3.03;;
6832;SDS011;3454;42.654;23.378;2023-06-04T00:17:04;5.60;;;3.10;;
6832;SDS011;3454;42.654;23.378;2023-06-04T00:19:30;5.20;;;3.05;;
6832;SDS011;3454;42.654;23.378;2023-06-04T00:21:55;3.42;;;2.97;;
6832;SDS011;3454;42.654;23.378;2023-06-04T00:24:20;3.25;;;2.90;;
6832;SDS011;3454;42.654;23.378;2023-06-04T00:26:46;4.70;;;3.13;;
6832;SDS011;3454;42.654;23.378;2023-06-04T00:29:12;3.45;;;2.95;;
6832;SDS011;3454;42.654;23.378;2023-06-04T00:31:37;3.72;;;3.30;;
6832;SDS011;3454;42.654;23.378;2023-06-04T00:34:05;3.08;;;2.75;;
6832;SDS011;3454;42.654;23.378;2023-06-04T00:36:31;4.97;;;3.33;;
6832;SDS011;3454;42.654;23.378;2023-06-04T00:38:56;5.03;;;3.55;;
6832;SDS011;3454;42.654;23.378;2023-06-04T00:41:22;6.40;;;3.60;;
6832;SDS011;3454;42.654;23.378;2023-06-04T00:43:47;4.25;;;3.50;;
6832;SDS011;3454;42.654;23.378;2023-06-04T00:46:20;6.60;;;3.85;;
6832;SDS011;3454;42.654;23.378;2023-06-04T00:48:46;4.22;;;3.80;;
6832;SDS011;3454;42.654;23.378;2023-06-04T00:51:11;4.10;;;3.35;;
6832;SDS011;3454;42.654;23.378;2023-06-04T00:53:37;5.97;;;4.22;;
6832;SDS011;3454;42.654;23.378;2023-06-04T00:56:04;5.45;;;3.95;;
6832;SDS011;3454;42.654;23.378;2023-06-04T00:58:30;9.05;;;5.10;;
6832;SDS011;3454;42.654;23.378;2023-06-04T01:00:56;6.90;;;5.50;;
6832;SDS011;3454;42.654;23.378;2023-06-04T01:03:29;8.82;;;6.15;;
6832;SDS011;3454;42.654;23.378;2023-06-04T01:06:04;7.63;;;5.93;;
6832;SDS011;3454;42.654;23.378;2023-06-04T01:08:33;7.60;;;6.78;;
6832;SDS011;3454;42.654;23.378;2023-06-04T01:11:00;8.00;;;6.72;;
6832;SDS011;3454;42.654;23.378;2023-06-04T01:13:33;7.75;;;6.70;;
6832;SDS011;3454;42.654;23.378;2023-06-04T01:15:58;8.70;;;6.50;;
6832;SDS011;3454;42.654;23.378;2023-06-04T01:18:26;10.52;;;7.40;;
6832;SDS011;3454;42.654;23.378;2023-06-04T01:21:00;7.95;;;7.15;;
6832;SDS011;3454;42.654;23.378;2023-06-04T01:23:33;7.88;;;7.07;;
6832;SDS011;3454;42.654;23.378;2023-06-04T01:26:01;11.80;;;7.60;;
6832;SDS011;3454;42.654;23.378;2023-06-04T01:28:28;12.25;;;7.20;;
6832;SDS011;3454;42.654;23.378;2023-06-04T01:30:58;7.28;;;6.40;;
6832;SDS011;3454;42.654;23.378;2023-06-04T01:33:26;11.38;;;5.78;;
6832;SDS011;3454;42.654;23.378;2023-06-04T01:35:52;7.82;;;4.80;;
6832;SDS011;3454;42.654;23.378;2023-06-04T01:38:18;5.80;;;4.32;;
6832;SDS011;3454;42.654;23.378;2023-06-04T01:40:45;5.72;;;3.75;;
6832;SDS011;3454;42.654;23.378;2023-06-04T01:43:11;3.75;;;3.40;;
6832;SDS011;3454;42.654;23.378;2023-06-04T01:45:37;3.42;;;2.78;;
6832;SDS011;3454;42.654;23.378;2023-06-04T01:48:03;2.55;;;2.35;;
6832;SDS011;3454;42.654;23.378;2023-06-04T01:50:29;5.00;;;2.88;;
6832;SDS011;3454;42.654;23.378;2023-06-04T01:52:55;3.90;;;2.78;;
6832;SDS011;3454;42.654;23.378;2023-06-04T01:55:21;3.42;;;2.63;;
6832;SDS011;3454;42.654;23.378;2023-06-04T01:57:46;3.10;;;2.65;;
6832;SDS011;3454;42.654;23.378;2023-06-04T02:00:18;4.18;;;3.22;;
6832;SDS011;3454;42.654;23.378;2023-06-04T02:02:45;3.42;;;2.58;;
6832;SDS011;3454;42.654;23.378;2023-06-04T02:05:13;3.28;;;2.97;;
6832;SDS011;3454;42.654;23.378;2023-06-04T02:07:39;4.35;;;2.90;;
6832;SDS011;3454;42.654;23.378;2023-06-04T02:10:13;5.38;;;3.63;;
6832;SDS011;3454;42.654;23.378;2023-06-04T02:12:41;4.95;;;4.40;;
6832;SDS011;3454;42.654;23.378;2023-06-04T02:15:18;7.50;;;5.72;;
6832;SDS011;3454;42.654;23.378;2023-06-04T02:17:43;7.72;;;6.93;;
6832;SDS011;3454;42.654;23.378;2023-06-04T02:20:11;9.27;;;6.88;;
6832;SDS011;3454;42.654;23.378;2023-06-04T02:22:36;7.10;;;6.43;;
6832;SDS011;3454;42.654;23.378;2023-06-04T02:25:02;9.85;;;7.57;;
6832;SDS011;3454;42.654;23.378;2023-06-04T02:27:28;6.70;;;5.78;;
6832;SDS011;3454;42.654;23.378;2023-06-04T02:29:54;6.25;;;5.18;;
6832;SDS011;3454;42.654;23.378;2023-06-04T02:32:19;6.72;;;5.63;;
6832;SDS011;3454;42.654;23.378;2023-06-04T02:34:44;5.03;;;4.53;;
6832;SDS011;3454;42.654;23.378;2023-06-04T02:37:10;6.10;;;4.63;;
6832;SDS011;3454;42.654;23.378;2023-06-04T02:39:35;4.25;;;3.85;;
6832;SDS011;3454;42.654;23.378;2023-06-04T02:42:00;4.95;;;3.40;;
6832;SDS011;3454;42.654;23.378;2023-06-04T02:44:26;3.83;;;3.40;;
6832;SDS011;3454;42.654;23.378;2023-06-04T02:46:54;3.65;;;3.30;;
6832;SDS011;3454;42.654;23.378;2023-06-04T02:49:19;3.63;;;3.30;;
6832;SDS011;3454;42.654;23.378;2023-06-04T02:51:45;4.72;;;3.38;;
6832;SDS011;3454;42.654;23.378;2023-06-04T02:54:11;4.43;;;2.92;;
6832;SDS011;3454;42.654;23.378;2023-06-04T02:56:36;4.28;;;3.20;;
6832;SDS011;3454;42.654;23.378;2023-06-04T02:59:02;4.38;;;2.78;;
6832;SDS011;3454;42.654;23.378;2023-06-04T03:01:28;3.83;;;2.88;;
6832;SDS011;3454;42.654;23.378;2023-06-04T03:03:53;3.03;;;2.72;;
6832;SDS011;3454;42.654;23.378;2023-06-04T03:06:20;3.47;;;3.08;;
6832;SDS011;3454;42.654;23.378;2023-06-04T03:08:50;4.32;;;2.60;;
6832;SDS011;3454;42.654;23.378;2023-06-04T03:11:17;3.80;;;2.70;;
6832;SDS011;3454;42.654;23.378;2023-06-04T03:13:45;4.82;;;2.90;;
6832;SDS011;3454;42.654;23.378;2023-06-04T03:16:11;4.88;;;3.03;;
6832;SDS011;3454;42.654;23.378;2023-06-04T03:18:37;3.03;;;2.42;;
6832;SDS011;3454;42.654;23.378;2023-06-04T03:21:06;2.65;;;2.45;;
6832;SDS011;3454;42.654;23.378;2023-06-04T03:23:32;3.22;;;2.50;;
6832;SDS011;3454;42.654;23.378;2023-06-04T03:25:59;4.60;;;2.88;;
6832;SDS011;3454;42.654;23.378;2023-06-04T03:28:28;2.67;;;2.47;;
6832;SDS011;3454;42.654;23.378;2023-06-04T03:30:53;3.63;;;2.63;;
6832;SDS011;3454;42.654;23.378;2023-06-04T03:33:19;3.33;;;2.72;;
6832;SDS011;3454;42.654;23.378;2023-06-04T03:35:44;2.90;;;2.60;;
6832;SDS011;3454;42.654;23.378;2023-06-04T03:38:10;5.38;;;2.53;;
6832;SDS011;3454;42.654;23.378;2023-06-04T03:40:36;3.67;;;2.60;;
6832;SDS011;3454;42.654;23.378;2023-06-04T03:43:02;2.97;;;2.50;;
6832;SDS011;3454;42.654;23.378;2023-06-04T03:45:29;3.95;;;2.80;;
6832;SDS011;3454;42.654;23.378;2023-06-04T03:47:55;5.13;;;2.97;;
6832;SDS011;3454;42.654;23.378;2023-06-04T03:50:20;22.63;;;13.93;;
6832;SDS011;3454;42.654;23.378;2023-06-04T03:52:46;6.00;;;4.90;;
6832;SDS011;3454;42.654;23.378;2023-06-04T03:55:13;3.35;;;2.30;;
6832;SDS011;3454;42.654;23.378;2023-06-04T03:57:38;5.90;;;2.90;;
6832;SDS011;3454;42.654;23.378;2023-06-04T04:00:07;6.80;;;3.70;;
6832;SDS011;3454;42.654;23.378;2023-06-04T04:02:37;4.30;;;3.10;;
6832;SDS011;3454;42.654;23.378;2023-06-04T04:05:02;6.95;;;3.38;;
6832;SDS011;3454;42.654;23.378;2023-06-04T04:07:28;5.70;;;3.00;;
6832;SDS011;3454;42.654;23.378;2023-06-04T04:09:53;6.47;;;3.15;;
6832;SDS011;3454;42.654;23.378;2023-06-04T04:12:19;21.52;;;14.05;;
6832;SDS011;3454;42.654;23.378;2023-06-04T04:14:44;7.43;;;3.15;;
6832;SDS011;3454;42.654;23.378;2023-06-04T04:17:11;3.30;;;3.00;;
6832;SDS011;3454;42.654;23.378;2023-06-04T04:19:38;3.03;;;2.80;;
6832;SDS011;3454;42.654;23.378;2023-06-04T04:22:03;3.35;;;2.95;;
6832;SDS011;3454;42.654;23.378;2023-06-04T04:24:47;4.07;;;2.65;;
6832;SDS011;3454;42.654;23.378;2023-06-04T04:27:12;5.45;;;3.15;;
6832;SDS011;3454;42.654;23.378;2023-06-04T04:29:38;3.00;;;2.70;;
6832;SDS011;3454;42.654;23.378;2023-06-04T04:32:04;5.63;;;3.17;;
6832;SDS011;3454;42.654;23.378;2023-06-04T04:34:36;5.00;;;3.10;;
6832;SDS011;3454;42.654;23.378;2023-06-04T04:37:04;6.03;;;2.90;;
6832;SDS011;3454;42.654;23.378;2023-06-04T04:39:33;5.13;;;3.35;;
6832;SDS011;3454;42.654;23.378;2023-06-04T04:41:59;6.05;;;3.42;;
6832;SDS011;3454;42.654;23.378;2023-06-04T04:44:25;6.65;;;3.03;;
6832;SDS011;3454;42.654;23.378;2023-06-04T04:46:51;4.50;;;3.47;;
6832;SDS011;3454;42.654;23.378;2023-06-04T04:49:16;3.40;;;3.10;;
6832;SDS011;3454;42.654;23.378;2023-06-04T04:51:41;3.92;;;3.58;;
6832;SDS011;3454;42.654;23.378;2023-06-04T04:54:07;3.50;;;2.97;;
6832;SDS011;3454;42.654;23.378;2023-06-04T04:56:33;4.28;;;3.53;;
6832;SDS011;3454;42.654;23.378;2023-06-04T05:01:44;5.13;;;3.67;;
6832;SDS011;3454;42.654;23.378;2023-06-04T05:04:09;8.88;;;4.22;;
6832;SDS011;3454;42.654;23.378;2023-06-04T05:06:34;6.28;;;4.60;;
6832;SDS011;3454;42.654;23.378;2023-06-04T05:09:02;4.28;;;3.70;;
6832;SDS011;3454;42.654;23.378;2023-06-04T05:11:27;6.00;;;3.65;;
6832;SDS011;3454;42.654;23.378;2023-06-04T05:13:53;8.23;;;3.67;;
6832;SDS011;3454;42.654;23.378;2023-06-04T05:16:18;6.78;;;3.83;;
6832;SDS011;3454;42.654;23.378;2023-06-04T05:18:45;4.22;;;3.83;;
6832;SDS011;3454;42.654;23.378;2023-06-04T05:21:11;5.05;;;3.80;;
6832;SDS011;3454;42.654;23.378;2023-06-04T05:23:37;5.38;;;3.95;;
6832;SDS011;3454;42.654;23.378;2023-06-04T05:26:04;7.80;;;4.03;;
6832;SDS011;3454;42.654;23.378;2023-06-04T05:28:30;5.72;;;4.35;;
6832;SDS011;3454;42.654;23.378;2023-06-04T05:30:58;4.90;;;4.15;;
6832;SDS011;3454;42.654;23.378;2023-06-04T05:33:26;8.65;;;4.07;;
6832;SDS011;3454;42.654;23.378;2023-06-04T05:35:52;5.50;;;3.53;;
6832;SDS011;3454;42.654;23.378;2023-06-04T05:38:19;4.47;;;4.00;;
6832;SDS011;3454;42.654;23.378;2023-06-04T05:40:45;4.93;;;3.60;;
6832;SDS011;3454;42.654;23.378;2023-06-04T05:43:11;4.85;;;3.83;;
6832;SDS011;3454;42.654;23.378;2023-06-04T05:45:37;4.70;;;4.30;;
6832;SDS011;3454;42.654;23.378;2023-06-04T05:48:02;8.48;;;4.53;;
6832;SDS011;3454;42.654;23.378;2023-06-04T05:50:28;6.38;;;4.32;;
6832;SDS011;3454;42.654;23.378;2023-06-04T05:52:55;5.88;;;4.55;;
6832;SDS011;3454;42.654;23.378;2023-06-04T05:55:21;7.93;;;4.68;;
6832;SDS011;3454;42.654;23.378;2023-06-04T05:57:47;6.22;;;4.93;;
6832;SDS011;3454;42.654;23.378;2023-06-04T06:00:13;6.25;;;4.72;;
6832;SDS011;3454;42.654;23.378;2023-06-04T06:02:39;5.85;;;4.68;;
6832;SDS011;3454;42.654;23.378;2023-06-04T06:05:05;6.93;;;5.07;;
6832;SDS011;3454;42.654;23.378;2023-06-04T06:07:34;6.38;;;4.43;;
6832;SDS011;3454;42.654;23.378;2023-06-04T06:10:00;6.53;;;3.90;;
6832;SDS011;3454;42.654;23.378;2023-06-04T06:12:26;5.85;;;4.30;;
6832;SDS011;3454;42.654;23.378;2023-06-04T06:14:52;5.63;;;4.95;;
6832;SDS011;3454;42.654;23.378;2023-06-04T06:17:17;9.30;;;5.47;;
6832;SDS011;3454;42.654;23.378;2023-06-04T06:19:43;5.57;;;4.15;;
6832;SDS011;3454;42.654;23.378;2023-06-04T06:22:08;6.90;;;4.45;;
6832;SDS011;3454;42.654;23.378;2023-06-04T06:24:34;5.03;;;4.50;;
6832;SDS011;3454;42.654;23.378;2023-06-04T06:26:59;8.32;;;4.80;;
6832;SDS011;3454;42.654;23.378;2023-06-04T06:29:25;8.48;;;4.38;;
6832;SDS011;3454;42.654;23.378;2023-06-04T06:31:50;5.93;;;3.80;;
6832;SDS011;3454;42.654;23.378;2023-06-04T06:34:16;8.02;;;4.07;;
6832;SDS011;3454;42.654;23.378;2023-06-04T06:36:41;5.22;;;3.72;;
6832;SDS011;3454;42.654;23.378;2023-06-04T06:39:07;6.57;;;4.13;;
6832;SDS011;3454;42.654;23.378;2023-06-04T06:41:33;5.32;;;4.22;;
6832;SDS011;3454;42.654;23.378;2023-06-04T06:43:59;6.60;;;4.75;;
6832;SDS011;3454;42.654;23.378;2023-06-04T06:46:25;5.88;;;4.47;;
6832;SDS011;3454;42.654;23.378;2023-06-04T06:48:50;7.00;;;4.45;;
6832;SDS011;3454;42.654;23.378;2023-06-04T06:51:16;9.45;;;4.70;;
6832;SDS011;3454;42.654;23.378;2023-06-04T06:53:41;4.85;;;4.20;;
6832;SDS011;3454;42.654;23.378;2023-06-04T06:56:08;4.25;;;3.85;;
6832;SDS011;3454;42.654;23.378;2023-06-04T06:58:33;8.07;;;4.40;;
6832;SDS011;3454;42.654;23.378;2023-06-04T07:00:59;6.88;;;4.07;;
6832;SDS011;3454;42.654;23.378;2023-06-04T07:03:25;8.82;;;4.10;;
6832;SDS011;3454;42.654;23.378;2023-06-04T07:05:50;7.90;;;5.15;;
6832;SDS011;3454;42.654;23.378;2023-06-04T07:08:15;6.88;;;4.72;;
6832;SDS011;3454;42.654;23.378;2023-06-04T07:10:41;6.95;;;5.70;;
6832;SDS011;3454;42.654;23.378;2023-06-04T07:13:06;14.65;;;10.82;;
6832;SDS011;3454;42.654;23.378;2023-06-04T07:15:32;4.93;;;4.03;;
6832;SDS011;3454;42.654;23.378;2023-06-04T07:17:57;5.85;;;4.47;;
6832;SDS011;3454;42.654;23.378;2023-06-04T07:20:22;7.03;;;5.95;;
6832;SDS011;3454;42.654;23.378;2023-06-04T07:22:48;8.50;;;6.28;;
6832;SDS011;3454;42.654;23.378;2023-06-04T07:25:14;6.85;;;4.50;;
6832;SDS011;3454;42.654;23.378;2023-06-04T07:27:39;6.85;;;5.00;;
6832;SDS011;3454;42.654;23.378;2023-06-04T07:30:05;7.07;;;5.18;;
6832;SDS011;3454;42.654;23.378;2023-06-04T07:32:32;6.57;;;4.55;;
6832;SDS011;3454;42.654;23.378;2023-06-04T07:34:58;4.68;;;4.15;;
6832;SDS011;3454;42.654;23.378;2023-06-04T07:37:23;6.25;;;4.30;;
6832;SDS011;3454;42.654;23.378;2023-06-04T07:39:48;8.52;;;4.30;;
6832;SDS011;3454;42.654;23.378;2023-06-04T07:42:14;8.15;;;4.50;;
6832;SDS011;3454;42.654;23.378;2023-06-04T07:44:39;9.98;;;4.82;;
6832;SDS011;3454;42.654;23.378;2023-06-04T07:47:05;5.13;;;4.40;;
6832;SDS011;3454;42.654;23.378;2023-06-04T07:49:31;6.10;;;4.30;;
6832;SDS011;3454;42.654;23.378;2023-06-04T07:51:56;6.50;;;4.57;;
6832;SDS011;3454;42.654;23.378;2023-06-04T07:54:22;6.55;;;4.85;;
6832;SDS011;3454;42.654;23.378;2023-06-04T07:56:48;8.43;;;4.88;;
6832;SDS011;3454;42.654;23.378;2023-06-04T07:59:13;10.50;;;4.90;;
6832;SDS011;3454;42.654;23.378;2023-06-04T08:01:39;7.53;;;4.18;;
6832;SDS011;3454;42.654;23.378;2023-06-04T08:04:05;7.13;;;4.68;;
6832;SDS011;3454;42.654;23.378;2023-06-04T08:06:30;6.80;;;4.50;;
6832;SDS011;3454;42.654;23.378;2023-06-04T08:08:56;6.30;;;4.55;;
6832;SDS011;3454;42.654;23.378;2023-06-04T08:11:21;6.75;;;4.88;;
6832;SDS011;3454;42.654;23.378;2023-06-04T08:13:48;5.15;;;4.65;;
6832;SDS011;3454;42.654;23.378;2023-06-04T08:16:13;7.18;;;4.65;;
6832;SDS011;3454;42.654;23.378;2023-06-04T08:18:39;10.45;;;4.68;;
6832;SDS011;3454;42.654;23.378;2023-06-04T08:21:05;6.68;;;4.93;;
6832;SDS011;3454;42.654;23.378;2023-06-04T08:23:31;8.07;;;5.10;;
6832;SDS011;3454;42.654;23.378;2023-06-04T08:25:57;6.68;;;4.60;;
6832;SDS011;3454;42.654;23.378;2023-06-04T08:28:24;7.53;;;4.78;;
6832;SDS011;3454;42.654;23.378;2023-06-04T08:30:49;7.97;;;5.47;;
6832;SDS011;3454;42.654;23.378;2023-06-04T08:33:15;6.18;;;4.88;;
6832;SDS011;3454;42.654;23.378;2023-06-04T08:35:40;13.93;;;5.72;;
6832;SDS011;3454;42.654;23.378;2023-06-04T08:38:05;6.72;;;5.15;;
6832;SDS011;3454;42.654;23.378;2023-06-04T08:40:32;8.35;;;5.15;;
6832;SDS011;3454;42.654;23.378;2023-06-04T08:42:59;5.32;;;4.60;;
6832;SDS011;3454;42.654;23.378;2023-06-04T08:45:25;9.73;;;5.72;;
6832;SDS011;3454;42.654;23.378;2023-06-04T08:47:52;8.98;;;5.80;;
6832;SDS011;3454;42.654;23.378;2023-06-04T08:50:19;8.43;;;5.90;;
6832;SDS011;3454;42.654;23.378;2023-06-04T08:52:47;10.77;;;5.18;;
6832;SDS011;3454;42.654;23.378;2023-06-04T08:55:20;6.80;;;5.80;;
6832;SDS011;3454;42.654;23.378;2023-06-04T08:57:46;7.68;;;6.38;;
6832;SDS011;3454;42.654;23.378;2023-06-04T09:00:14;12.27;;;5.80;;
6832;SDS011;3454;42.654;23.378;2023-06-04T09:02:40;6.15;;;5.53;;
6832;SDS011;3454;42.654;23.378;2023-06-04T09:05:06;12.00;;;6.10;;
6832;SDS011;3454;42.654;23.378;2023-06-04T09:07:36;7.57;;;5.60;;
6832;SDS011;3454;42.654;23.378;2023-06-04T09:10:04;9.93;;;5.75;;
6832;SDS011;3454;42.654;23.378;2023-06-04T09:12:32;11.00;;;6.15;;
6832;SDS011;3454;42.654;23.378;2023-06-04T09:15:00;7.47;;;5.35;;
6832;SDS011;3454;42.654;23.378;2023-06-04T09:17:26;7.05;;;5.32;;
6832;SDS011;3454;42.654;23.378;2023-06-04T09:19:53;7.72;;;6.22;;
6832;SDS011;3454;42.654;23.378;2023-06-04T09:22:19;9.68;;;6.32;;
6832;SDS011;3454;42.654;23.378;2023-06-04T09:24:46;8.88;;;6.80;;
6832;SDS011;3454;42.654;23.378;2023-06-04T09:27:21;8.32;;;6.38;;
6832;SDS011;3454;42.654;23.378;2023-06-04T09:29:56;9.77;;;6.55;;
6832;SDS011;3454;42.654;23.378;2023-06-04T09:32:23;10.70;;;6.72;;
6832;SDS011;3454;42.654;23.378;2023-06-04T09:34:50;10.82;;;7.53;;
6832;SDS011;3454;42.654;23.378;2023-06-04T09:37:17;10.93;;;8.15;;
6832;SDS011;3454;42.654;23.378;2023-06-04T09:39:44;9.32;;;7.10;;
6832;SDS011;3454;42.654;23.378;2023-06-04T09:42:18;10.38;;;6.95;;
6832;SDS011;3454;42.654;23.378;2023-06-04T09:44:44;10.13;;;7.50;;
6832;SDS011;3454;42.654;23.378;2023-06-04T09:47:10;9.23;;;7.22;;
6832;SDS011;3454;42.654;23.378;2023-06-04T09:49:46;10.00;;;7.18;;
6832;SDS011;3454;42.654;23.378;2023-06-04T09:52:13;10.80;;;8.32;;
6832;SDS011;3454;42.654;23.378;2023-06-04T09:54:39;11.63;;;6.90;;
6832;SDS011;3454;42.654;23.378;2023-06-04T09:57:15;7.68;;;6.20;;
6832;SDS011;3454;42.654;23.378;2023-06-04T09:59:49;7.07;;;5.45;;
6832;SDS011;3454;42.654;23.378;2023-06-04T10:02:18;12.15;;;5.95;;
6832;SDS011;3454;42.654;23.378;2023-06-04T10:04:47;8.18;;;6.18;;
6832;SDS011;3454;42.654;23.378;2023-06-04T10:07:18;7.78;;;5.28;;
6832;SDS011;3454;42.654;23.378;2023-06-04T10:09:44;7.07;;;5.55;;
6832;SDS011;3454;42.654;23.378;2023-06-04T10:12:15;7.40;;;5.78;;
6832;SDS011;3454;42.654;23.378;2023-06-04T10:14:52;8.35;;;6.28;;
6832;SDS011;3454;42.654;23.378;2023-06-04T10:17:24;8.68;;;5.30;;
6832;SDS011;3454;42.654;23.378;2023-06-04T10:19:53;9.23;;;6.20;;
6832;SDS011;3454;42.654;23.378;2023-06-04T10:22:25;9.15;;;5.70;;
6832;SDS011;3454;42.654;23.378;2023-06-04T10:24:51;7.90;;;5.90;;
6832;SDS011;3454;42.654;23.378;2023-06-04T10:27:17;8.57;;;6.38;;
6832;SDS011;3454;42.654;23.378;2023-06-04T10:29:43;8.30;;;6.15;;
6832;SDS011;3454;42.654;23.378;2023-06-04T10:32:09;9.02;;;5.72;;
6832;SDS011;3454;42.654;23.378;2023-06-04T10:34:35;7.53;;;6.10;;
6832;SDS011;3454;42.654;23.378;2023-06-04T10:37:01;7.53;;;5.57;;
6832;SDS011;3454;42.654;23.378;2023-06-04T10:39:31;7.60;;;5.03;;
6832;SDS011;3454;42.654;23.378;2023-06-04T10:41:58;11.70;;;5.45;;
6832;SDS011;3454;42.654;23.378;2023-06-04T10:44:24;8.27;;;5.60;;
6832;SDS011;3454;42.654;23.378;2023-06-04T10:46:50;6.30;;;5.60;;
6832;SDS011;3454;42.654;23.378;2023-06-04T10:49:25;7.85;;;5.82;;
6832;SDS011;3454;42.654;23.378;2023-06-04T10:51:51;9.38;;;5.90;;
6832;SDS011;3454;42.654;23.378;2023-06-04T10:54:23;7.78;;;5.80;;
6832;SDS011;3454;42.654;23.378;2023-06-04T10:56:50;6.35;;;5.75;;
6832;SDS011;3454;42.654;23.378;2023-06-04T10:59:17;9.48;;;6.35;;
6832;SDS011;3454;42.654;23.378;2023-06-04T11:01:43;7.72;;;6.15;;
6832;SDS011;3454;42.654;23.378;2023-06-04T11:04:18;7.30;;;5.78;;
6832;SDS011;3454;42.654;23.378;2023-06-04T11:06:48;6.32;;;5.60;;
6832;SDS011;3454;42.654;23.378;2023-06-04T11:09:26;6.57;;;5.45;;
6832;SDS011;3454;42.654;23.378;2023-06-04T11:11:58;8.75;;;5.57;;
6832;SDS011;3454;42.654;23.378;2023-06-04T11:14:24;6.47;;;5.82;;
6832;SDS011;3454;42.654;23.378;2023-06-04T11:16:50;6.93;;;6.22;;
6832;SDS011;3454;42.654;23.378;2023-06-04T11:19:15;6.78;;;5.90;;
6832;SDS011;3454;42.654;23.378;2023-06-04T11:21:41;7.68;;;6.18;;
6832;SDS011;3454;42.654;23.378;2023-06-04T11:24:06;6.43;;;5.82;;
6832;SDS011;3454;42.654;23.378;2023-06-04T11:26:32;7.45;;;5.90;;
6832;SDS011;3454;42.654;23.378;2023-06-04T11:29:00;8.45;;;6.70;;
6832;SDS011;3454;42.654;23.378;2023-06-04T11:31:26;14.10;;;6.55;;
6832;SDS011;3454;42.654;23.378;2023-06-04T11:33:52;12.27;;;6.68;;
6832;SDS011;3454;42.654;23.378;2023-06-04T11:36:24;8.80;;;6.18;;
6832;SDS011;3454;42.654;23.378;2023-06-04T11:38:58;9.43;;;6.53;;
6832;SDS011;3454;42.654;23.378;2023-06-04T11:41:24;8.93;;;6.95;;
6832;SDS011;3454;42.654;23.378;2023-06-04T11:43:55;7.07;;;6.38;;
6832;SDS011;3454;42.654;23.378;2023-06-04T11:46:22;7.88;;;6.95;;
6832;SDS011;3454;42.654;23.378;2023-06-04T11:48:52;9.48;;;7.60;;
6832;SDS011;3454;42.654;23.378;2023-06-04T11:51:18;9.77;;;6.93;;
6832;SDS011;3454;42.654;23.378;2023-06-04T11:53:52;6.93;;;6.22;;
6832;SDS011;3454;42.654;23.378;2023-06-04T11:56:18;8.40;;;6.75;;
6832;SDS011;3454;42.654;23.378;2023-06-04T11:58:44;7.78;;;7.03;;
6832;SDS011;3454;42.654;23.378;2023-06-04T12:01:11;7.57;;;6.40;;
6832;SDS011;3454;42.654;23.378;2023-06-04T12:03:41;8.32;;;6.40;;
6832;SDS011;3454;42.654;23.378;2023-06-04T12:06:14;8.85;;;6.68;;
6832;SDS011;3454;42.654;23.378;2023-06-04T12:08:52;10.55;;;6.65;;
6832;SDS011;3454;42.654;23.378;2023-06-04T12:13:51;7.63;;;6.07;;
6832;SDS011;3454;42.654;23.378;2023-06-04T12:16:18;7.18;;;6.13;;
6832;SDS011;3454;42.654;23.378;2023-06-04T12:18:43;8.07;;;7.00;;
6832;SDS011;3454;42.654;23.378;2023-06-04T12:21:21;7.30;;;6.57;;
6832;SDS011;3454;42.654;23.378;2023-06-04T12:23:52;8.55;;;6.63;;
6832;SDS011;3454;42.654;23.378;2023-06-04T12:26:43;8.30;;;6.57;;
6832;SDS011;3454;42.654;23.378;2023-06-04T12:29:15;7.38;;;6.68;;
6832;SDS011;3454;42.654;23.378;2023-06-04T12:31:44;7.30;;;6.60;;
6832;SDS011;3454;42.654;23.378;2023-06-04T12:34:10;6.97;;;6.30;;
6832;SDS011;3454;42.654;23.378;2023-06-04T12:36:37;9.80;;;7.07;;
6832;SDS011;3454;42.654;23.378;2023-06-04T12:39:03;12.88;;;7.22;;
6832;SDS011;3454;42.654;23.378;2023-06-04T12:41:30;7.88;;;7.15;;
6832;SDS011;3454;42.654;23.378;2023-06-04T12:43:58;7.00;;;6.13;;
6832;SDS011;3454;42.654;23.378;2023-06-04T12:46:23;10.48;;;6.07;;
6832;SDS011;3454;42.654;23.378;2023-06-04T12:48:50;7.78;;;6.60;;
6832;SDS011;3454;42.654;23.378;2023-06-04T12:51:16;7.40;;;6.68;;
6832;SDS011;3454;42.654;23.378;2023-06-04T12:53:42;8.52;;;7.07;;
6832;SDS011;3454;42.654;23.378;2023-06-04T12:56:07;7.90;;;6.28;;
6832;SDS011;3454;42.654;23.378;2023-06-04T12:58:34;7.60;;;6.72;;
6832;SDS011;3454;42.654;23.378;2023-06-04T13:01:00;7.90;;;6.57;;
6832;SDS011;3454;42.654;23.378;2023-06-04T13:03:25;6.95;;;6.25;;
6832;SDS011;3454;42.654;23.378;2023-06-04T13:05:51;9.60;;;6.43;;
6832;SDS011;3454;42.654;23.378;2023-06-04T13:08:18;6.40;;;5.70;;
6832;SDS011;3454;42.654;23.378;2023-06-04T13:10:46;8.57;;;5.95;;
6832;SDS011;3454;42.654;23.378;2023-06-04T13:13:11;6.85;;;5.70;;
6832;SDS011;3454;42.654;23.378;2023-06-04T13:15:37;6.10;;;5.50;;
6832;SDS011;3454;42.654;23.378;2023-06-04T13:18:02;7.82;;;5.35;;
6832;SDS011;3454;42.654;23.378;2023-06-04T13:20:28;8.57;;;5.68;;
6832;SDS011;3454;42.654;23.378;2023-06-04T13:22:54;7.93;;;5.63;;
6832;SDS011;3454;42.654;23.378;2023-06-04T13:25:19;5.82;;;5.22;;
6832;SDS011;3454;42.654;23.378;2023-06-04T13:27:44;6.57;;;5.32;;
6832;SDS011;3454;42.654;23.378;2023-06-04T13:30:10;8.65;;;6.18;;
6832;SDS011;3454;42.654;23.378;2023-06-04T13:32:36;6.25;;;5.22;;
6832;SDS011;3454;42.654;23.378;2023-06-04T13:35:02;8.13;;;6.03;;
6832;SDS011;3454;42.654;23.378;2023-06-04T13:37:27;6.25;;;5.00;;
6832;SDS011;3454;42.654;23.378;2023-06-04T13:39:53;7.60;;;5.55;;
6832;SDS011;3454;42.654;23.378;2023-06-04T13:42:18;9.98;;;5.15;;
6832;SDS011;3454;42.654;23.378;2023-06-04T13:44:43;12.88;;;6.05;;
6832;SDS011;3454;42.654;23.378;2023-06-04T13:47:09;6.10;;;5.43;;
6832;SDS011;3454;42.654;23.378;2023-06-04T13:49:35;9.05;;;6.68;;
6832;SDS011;3454;42.654;23.378;2023-06-04T13:52:00;6.68;;;5.50;;
6832;SDS011;3454;42.654;23.378;2023-06-04T13:54:26;6.10;;;5.50;;
6832;SDS011;3454;42.654;23.378;2023-06-04T13:56:51;6.07;;;5.20;;
6832;SDS011;3454;42.654;23.378;2023-06-04T13:59:17;8.15;;;5.30;;
6832;SDS011;3454;42.654;23.378;2023-06-04T14:01:43;11.13;;;7.00;;
6832;SDS011;3454;42.654;23.378;2023-06-04T14:04:08;8.82;;;6.18;;
6832;SDS011;3454;42.654;23.378;2023-06-04T14:06:36;8.98;;;5.30;;
6832;SDS011;3454;42.654;23.378;2023-06-04T14:09:01;7.25;;;6.25;;
6832;SDS011;3454;42.654;23.378;2023-06-04T14:11:27;8.05;;;6.32;;
6832;SDS011;3454;42.654;23.378;2023-06-04T14:13:52;5.82;;;4.75;;
6832;SDS011;3454;42.654;23.378;2023-06-04T14:16:17;6.38;;;5.72;;
6832;SDS011;3454;42.654;23.378;2023-06-04T14:18:43;6.45;;;5.20;;
6832;SDS011;3454;42.654;23.378;2023-06-04T14:21:08;7.22;;;5.55;;
6832;SDS011;3454;42.654;23.378;2023-06-04T14:23:34;6.75;;;5.78;;
6832;SDS011;3454;42.654;23.378;2023-06-04T14:26:00;7.18;;;6.38;;
6832;SDS011;3454;42.654;23.378;2023-06-04T14:28:25;6.70;;;6.10;;
6832;SDS011;3454;42.654;23.378;2023-06-04T14:30:51;6.10;;;5.55;;
6832;SDS011;3454;42.654;23.378;2023-06-04T14:33:16;6.97;;;6.13;;
6832;SDS011;3454;42.654;23.378;2023-06-04T14:35:42;9.45;;;6.10;;
6832;SDS011;3454;42.654;23.378;2023-06-04T14:38:12;6.07;;;5.43;;
6832;SDS011;3454;42.654;23.378;2023-06-04T14:40:39;8.13;;;6.43;;
6832;SDS011;3454;42.654;23.378;2023-06-04T14:43:06;8.20;;;5.88;;
6832;SDS011;3454;42.654;23.378;2023-06-04T14:45:32;8.90;;;6.25;;
6832;SDS011;3454;42.654;23.378;2023-06-04T14:47:58;7.72;;;6.03;;
6832;SDS011;3454;42.654;23.378;2023-06-04T14:50:23;6.53;;;5.80;;
6832;SDS011;3454;42.654;23.378;2023-06-04T14:52:49;7.68;;;5.50;;
6832;SDS011;3454;42.654;23.378;2023-06-04T14:55:14;8.93;;;7.30;;
6832;SDS011;3454;42.654;23.378;2023-06-04T14:57:39;6.82;;;5.82;;
6832;SDS011;3454;42.654;23.378;2023-06-04T15:00:06;6.70;;;6.07;;
6832;SDS011;3454;42.654;23.378;2023-06-04T15:02:31;7.00;;;5.47;;